createdAt,value
2022-09-28T00:01:23.994Z,62.78
2022-09-28T00:03:54.713Z,64.67
2022-09-28T00:06:26.574Z,62.79
2022-09-28T00:08:55.172Z,63.09
2022-09-28T00:11:24.199Z,64.07
2022-09-28T00:13:53.578Z,62.87
2022-09-28T00:16:25.809Z,62.92
2022-09-28T00:18:54.090Z,62.07
2022-09-28T00:21:24.457Z,62.22
2022-09-28T00:24:12.534Z,61.72
2022-09-28T00:26:43.429Z,62.30
2022-09-28T00:29:28.688Z,61.79
2022-09-28T00:32:03.144Z,62.44
2022-09-28T00:34:34.742Z,62.66
2022-09-28T00:37:04.690Z,62.33
2022-09-28T00:39:32.360Z,62.07
2022-09-28T00:42:00.138Z,61.21
2022-09-28T00:44:54.782Z,61.27
2022-09-28T00:47:38.290Z,61.34
2022-09-28T00:50:30.299Z,60.91
2022-09-28T00:53:00.409Z,61.15
2022-09-28T00:55:42.371Z,61.07
2022-09-28T00:58:12.733Z,61.58
2022-09-28T01:00:41.587Z,61.48
2022-09-28T01:03:10.358Z,61.19
2022-09-28T01:05:40.031Z,60.51
2022-09-28T01:08:09.128Z,61.24
2022-09-28T01:10:36.765Z,61.00
2022-09-28T01:13:04.538Z,60.44
2022-09-28T01:15:38.112Z,60.98
2022-09-28T01:18:05.879Z,61.04
2022-09-28T01:20:45.526Z,60.58
2022-09-28T01:23:39.393Z,60.67
2022-09-28T01:26:25.600Z,60.83
2022-09-28T01:28:59.628Z,60.53
2022-09-28T01:31:31.336Z,60.55
2022-09-28T01:34:05.360Z,60.61
2022-09-28T01:36:41.499Z,60.17
2022-09-28T01:39:15.563Z,61.07
2022-09-28T01:41:45.961Z,61.66
2022-09-28T01:44:16.568Z,60.83
2022-09-28T01:46:48.189Z,60.83
2022-09-28T01:49:31.429Z,61.09
2022-09-28T01:52:11.689Z,61.32
2022-09-28T01:54:54.521Z,61.26
2022-09-28T01:57:45.560Z,61.17
2022-09-28T02:00:15.822Z,61.51
2022-09-28T02:02:59.573Z,61.25
2022-09-28T02:05:32.400Z,60.43
2022-09-28T02:08:20.765Z,61.15
2022-09-28T02:11:00.409Z,60.98
2022-09-28T02:13:32.268Z,60.46
2022-09-28T02:16:12.190Z,60.85
2022-09-28T02:18:40.323Z,60.66
2022-09-28T02:21:18.049Z,60.25
2022-09-28T02:23:54.343Z,59.93
2022-09-28T02:26:27.678Z,59.41
2022-09-28T02:28:55.718Z,60.26
2022-09-28T02:31:23.929Z,59.92
2022-09-28T02:33:52.580Z,60.93
2022-09-28T02:36:20.399Z,59.64
2022-09-28T02:38:48.398Z,59.77
2022-09-28T02:41:40.186Z,60.03
2022-09-28T02:44:32.869Z,59.38
2022-09-28T02:47:10.098Z,59.43
2022-09-28T02:49:56.101Z,59.43
2022-09-28T02:52:42.108Z,59.10
2022-09-28T02:55:42.441Z,58.78
2022-09-28T02:58:31.200Z,58.40
2022-09-28T03:01:17.812Z,58.25
2022-09-28T03:04:13.167Z,59.24
2022-09-28T03:06:48.508Z,58.09
2022-09-28T03:09:21.789Z,58.93
2022-09-28T03:11:53.238Z,59.23
2022-09-28T03:14:21.129Z,59.37
2022-09-28T03:16:50.123Z,58.76
2022-09-28T03:19:22.399Z,59.08
2022-09-28T03:21:51.780Z,58.86
2022-09-28T03:24:19.381Z,57.88
2022-09-28T03:26:47.060Z,57.81
2022-09-28T03:29:15.358Z,58.32
2022-09-28T03:31:44.392Z,59.14
2022-09-28T03:34:12.739Z,59.04
2022-09-28T03:36:40.669Z,59.27
2022-09-28T03:39:08.268Z,58.81
2022-09-28T03:41:38.429Z,59.15
2022-09-28T03:44:06.437Z,58.93
2022-09-28T03:46:34.252Z,58.15
2022-09-28T03:49:02.601Z,58.97
2022-09-28T03:51:30.531Z,58.99
2022-09-28T03:53:58.101Z,59.93
2022-09-28T03:56:26.678Z,60.50
2022-09-28T03:58:54.710Z,59.93
2022-09-28T04:01:22.628Z,60.42
2022-09-28T04:03:55.218Z,60.32
2022-09-28T04:06:24.545Z,60.40
2022-09-28T04:08:52.699Z,60.77
2022-09-28T04:11:20.500Z,62.01
2022-09-28T04:13:49.999Z,61.14
2022-09-28T04:16:19.112Z,61.26
2022-09-28T04:18:49.199Z,61.67
2022-09-28T04:21:20.245Z,61.28
2022-09-28T04:23:49.182Z,61.16
2022-09-28T04:26:19.239Z,61.19
2022-09-28T04:29:07.417Z,61.34
2022-09-28T04:31:54.114Z,61.15
2022-09-28T04:34:23.550Z,61.35
2022-09-28T04:36:51.349Z,61.90
2022-09-28T04:39:19.985Z,62.46
2022-09-28T04:41:49.012Z,61.32
2022-09-28T04:44:16.860Z,62.00
2022-09-28T04:46:46.117Z,62.08
2022-09-28T04:49:16.055Z,61.11
2022-09-28T04:51:43.882Z,62.45
2022-09-28T04:54:12.519Z,62.26
2022-09-28T04:56:41.355Z,64.04
2022-09-28T04:59:10.076Z,64.04
2022-09-28T05:01:38.144Z,64.92
2022-09-28T05:04:07.234Z,65.78
2022-09-28T05:06:34.878Z,64.79
2022-09-28T05:09:02.664Z,64.58
2022-09-28T05:11:30.815Z,64.38
2022-09-28T05:13:58.672Z,64.63
2022-09-28T05:16:31.644Z,65.66
2022-09-28T05:19:14.437Z,65.10
2022-09-28T05:21:47.013Z,63.94
2022-09-28T05:24:15.039Z,63.18
2022-09-28T05:26:44.209Z,63.50
2022-09-28T05:29:11.981Z,63.11
2022-09-28T05:31:42.261Z,57.31
2022-09-28T05:34:10.288Z,50.55
2022-09-28T05:36:40.169Z,48.16
2022-09-28T05:39:09.790Z,46.69
2022-09-28T05:41:37.419Z,47.55
2022-09-28T05:44:05.746Z,46.57
2022-09-28T05:46:35.210Z,46.18
2022-09-28T05:49:03.658Z,46.75
2022-09-28T05:51:31.338Z,46.76
2022-09-28T05:54:04.607Z,47.17
2022-09-28T05:56:34.069Z,47.02
2022-09-28T05:59:05.409Z,47.72
2022-09-28T06:01:33.136Z,47.98
2022-09-28T06:04:01.608Z,49.31
2022-09-28T06:06:29.278Z,49.80
2022-09-28T06:08:57.190Z,47.44
2022-09-28T06:11:28.005Z,48.51
2022-09-28T06:13:56.180Z,48.25
2022-09-28T06:16:24.478Z,46.92
2022-09-28T06:18:52.624Z,47.08
2022-09-28T06:21:20.808Z,47.63
2022-09-28T06:23:49.495Z,48.06
2022-09-28T06:26:18.020Z,48.17
2022-09-28T06:28:46.127Z,45.57
2022-09-28T06:31:13.867Z,47.11
2022-09-28T06:33:42.642Z,50.42
2022-09-28T06:36:10.480Z,51.45
2022-09-28T06:38:38.550Z,51.02
2022-09-28T06:41:06.802Z,49.24
2022-09-28T06:43:35.289Z,48.71
2022-09-28T06:46:09.852Z,49.16
2022-09-28T06:48:38.286Z,47.79
2022-09-28T06:51:07.204Z,48.77
2022-09-28T06:53:36.578Z,47.57
2022-09-28T06:56:09.324Z,48.51
2022-09-28T06:58:37.326Z,45.74
2022-09-28T07:01:05.923Z,47.15
2022-09-28T07:03:35.042Z,46.53
2022-09-28T07:06:04.481Z,45.47
2022-09-28T07:08:33.081Z,44.96
2022-09-28T07:11:06.142Z,45.95
2022-09-28T07:13:49.649Z,45.66
2022-09-28T07:16:24.075Z,46.50
2022-09-28T07:18:54.739Z,45.51
2022-09-28T07:21:29.583Z,47.39
2022-09-28T07:24:00.201Z,46.55
2022-09-28T07:26:33.392Z,44.81
2022-09-28T07:29:01.526Z,43.28
2022-09-28T07:31:29.811Z,44.72
2022-09-28T07:33:58.911Z,45.64
2022-09-28T07:36:27.777Z,42.27
2022-09-28T07:38:55.741Z,44.69
2022-09-28T07:41:32.726Z,46.67
2022-09-28T07:44:05.538Z,44.84
2022-09-28T07:46:39.910Z,44.97
2022-09-28T07:49:11.410Z,47.70
2022-09-28T07:51:44.432Z,45.91
2022-09-28T07:54:12.680Z,46.61
2022-09-28T07:56:41.033Z,48.14
2022-09-28T07:59:09.244Z,44.16
2022-09-28T08:01:41.334Z,46.16
2022-09-28T08:04:09.619Z,47.10
2022-09-28T08:06:37.608Z,47.92
2022-09-28T08:09:06.104Z,45.86
2022-09-28T08:11:35.249Z,47.20
2022-09-28T08:14:03.402Z,44.76
2022-09-28T08:16:34.772Z,45.31
2022-09-28T08:19:04.489Z,46.63
2022-09-28T08:21:47.721Z,45.37
2022-09-28T08:24:17.860Z,44.15
2022-09-28T08:26:46.059Z,46.55
2022-09-28T08:29:16.287Z,46.79
2022-09-28T08:31:48.722Z,46.58
2022-09-28T08:34:18.991Z,46.40
2022-09-28T08:36:48.310Z,46.10
2022-09-28T08:39:18.660Z,44.43
2022-09-28T08:42:03.720Z,46.05
2022-09-28T08:44:39.853Z,46.65
2022-09-28T08:47:47.421Z,46.65
2022-09-28T08:50:19.510Z,46.61
2022-09-28T08:52:54.672Z,45.85
2022-09-28T08:55:32.801Z,48.66
2022-09-28T08:58:17.263Z,47.93
2022-09-28T09:00:50.192Z,48.47
2022-09-28T09:03:25.921Z,46.22
2022-09-28T09:06:00.528Z,46.02
2022-09-28T09:08:57.452Z,45.52
2022-09-28T09:11:34.778Z,44.67
2022-09-28T09:14:25.692Z,44.88
2022-09-28T09:17:18.518Z,46.56
2022-09-28T09:19:53.091Z,46.76
2022-09-28T09:22:53.302Z,46.35
2022-09-28T09:25:28.685Z,48.12
2022-09-28T09:28:21.530Z,48.51
2022-09-28T09:30:57.888Z,48.81
2022-09-28T09:33:54.752Z,48.61
2022-09-28T09:36:38.732Z,48.23
2022-09-28T09:39:16.341Z,50.62
2022-09-28T09:42:08.603Z,51.72
2022-09-28T09:45:01.739Z,51.40
2022-09-28T09:47:38.699Z,51.08
2022-09-28T09:50:19.801Z,50.49
2022-09-28T09:52:55.940Z,50.76
2022-09-28T09:55:45.789Z,50.07
2022-09-28T09:58:37.512Z,49.01
2022-09-28T10:01:13.228Z,49.10
2022-09-28T10:03:47.403Z,50.12
2022-09-28T10:06:23.300Z,51.12
2022-09-28T10:09:01.657Z,52.40
2022-09-28T10:11:35.840Z,53.62
2022-09-28T10:14:08.369Z,54.17
2022-09-28T10:16:36.503Z,54.83
2022-09-28T10:19:08.321Z,55.26
2022-09-28T10:21:42.491Z,52.57
2022-09-28T10:24:30.923Z,51.88
2022-09-28T10:27:07.909Z,51.76
2022-09-28T10:30:04.390Z,49.33
2022-09-28T10:32:47.437Z,50.91
2022-09-28T10:35:18.820Z,51.81
2022-09-28T10:37:54.444Z,51.28
2022-09-28T10:40:32.465Z,50.21
2022-09-28T10:43:24.112Z,53.03
2022-09-28T10:46:10.246Z,50.39
2022-09-28T10:48:59.178Z,49.70
2022-09-28T10:51:50.624Z,50.68
2022-09-28T10:54:18.691Z,52.58
2022-09-28T10:56:48.083Z,52.80
2022-09-28T10:59:29.888Z,51.57
2022-09-28T11:02:04.452Z,50.20
2022-09-28T11:04:43.603Z,51.69
2022-09-28T11:07:24.885Z,49.08
2022-09-28T11:09:54.802Z,46.29
2022-09-28T11:12:26.400Z,44.77
2022-09-28T11:15:17.883Z,44.66
2022-09-28T11:17:46.459Z,43.99
2022-09-28T11:20:28.174Z,45.81
2022-09-28T11:23:15.993Z,43.99
2022-09-28T11:25:44.329Z,44.46
2022-09-28T11:28:23.562Z,46.53
2022-09-28T11:30:53.230Z,47.05
2022-09-28T11:33:31.270Z,48.64
2022-09-28T11:36:18.629Z,48.79
2022-09-28T11:39:09.420Z,47.80
2022-09-28T11:42:05.710Z,45.65
2022-09-28T11:44:59.340Z,45.57
2022-09-28T11:47:48.393Z,48.61
2022-09-28T11:50:39.631Z,48.36
2022-09-28T11:53:18.903Z,46.82
2022-09-28T11:55:50.282Z,47.86
2022-09-28T11:58:24.113Z,50.11
2022-09-28T12:00:58.971Z,51.14
2022-09-28T12:03:34.488Z,49.89
2022-09-28T12:06:05.550Z,51.39
2022-09-28T12:08:44.962Z,48.65
2022-09-28T12:11:20.982Z,47.22
2022-09-28T12:13:53.839Z,47.50
2022-09-28T12:16:53.694Z,45.94
2022-09-28T12:19:32.591Z,47.36
2022-09-28T12:22:04.992Z,46.61
2022-09-28T12:24:37.445Z,46.17
2022-09-28T12:27:12.298Z,49.59
2022-09-28T12:29:47.648Z,47.95
2022-09-28T12:32:46.749Z,46.56
2022-09-28T12:35:29.484Z,49.22
2022-09-28T12:38:09.026Z,48.71
2022-09-28T12:40:57.851Z,48.79
2022-09-28T12:43:54.742Z,50.14
2022-09-28T12:46:57.640Z,51.55
2022-09-28T12:50:36.275Z,51.23
2022-09-28T12:52:54.310Z,52.95
2022-09-28T12:55:57.899Z,53.39
2022-09-28T12:58:36.954Z,52.91
2022-09-28T13:01:33.098Z,52.16
2022-09-28T13:04:19.947Z,53.17
2022-09-28T13:06:55.751Z,53.18
2022-09-28T13:09:26.330Z,53.21
2022-09-28T13:12:18.862Z,53.92
2022-09-28T13:14:59.588Z,53.35
2022-09-28T13:17:44.000Z,52.53
2022-09-28T13:20:22.023Z,52.22
2022-09-28T13:22:57.692Z,52.43
2022-09-28T13:25:27.385Z,51.64
2022-09-28T13:28:05.603Z,51.14
2022-09-28T13:30:36.223Z,52.26
2022-09-28T13:33:06.312Z,51.18
2022-09-28T13:35:35.228Z,52.06
2022-09-28T13:38:18.128Z,50.66
2022-09-28T13:41:20.321Z,49.44
2022-09-28T13:44:09.909Z,50.34
2022-09-28T13:46:52.803Z,50.69
2022-09-28T13:49:29.773Z,50.34
2022-09-28T13:52:27.942Z,50.59
2022-09-28T13:55:25.162Z,49.66
2022-09-28T13:58:20.760Z,49.38
2022-09-28T14:01:22.199Z,48.57
2022-09-28T14:03:56.275Z,48.63
2022-09-28T14:06:29.456Z,50.46
2022-09-28T14:09:19.070Z,50.18
2022-09-28T14:11:47.490Z,49.83
2022-09-28T14:14:16.241Z,49.62
2022-09-28T14:16:44.542Z,50.55
2022-09-28T14:19:18.783Z,50.39
2022-09-28T14:22:07.650Z,50.33
2022-09-28T14:24:51.105Z,50.05
2022-09-28T14:27:37.588Z,49.28
2022-09-28T14:30:20.056Z,50.30
2022-09-28T14:32:57.404Z,49.26
2022-09-28T14:35:40.352Z,49.10
2022-09-28T14:38:37.074Z,49.73
2022-09-28T14:41:11.735Z,49.46
2022-09-28T14:43:45.971Z,50.69
2022-09-28T14:46:20.043Z,51.31
2022-09-28T14:48:52.823Z,51.63
2022-09-28T14:51:26.712Z,52.30
2022-09-28T14:54:00.597Z,52.05
2022-09-28T14:56:32.750Z,52.71
2022-09-28T14:59:01.120Z,52.02
2022-09-28T15:01:30.438Z,52.36
2022-09-28T15:04:04.720Z,52.11
2022-09-28T15:06:46.823Z,53.70
2022-09-28T15:09:26.752Z,52.37
2022-09-28T15:12:16.009Z,53.14
2022-09-28T15:14:53.211Z,53.82
2022-09-28T15:17:27.820Z,53.29
2022-09-28T15:20:17.379Z,52.66
2022-09-28T15:22:47.273Z,53.09
2022-09-28T15:25:20.151Z,52.03
2022-09-28T15:27:57.361Z,52.16
2022-09-28T15:30:28.221Z,53.62
2022-09-28T15:33:17.522Z,52.18
2022-09-28T15:36:04.730Z,52.13
2022-09-28T15:38:34.172Z,52.56
2022-09-28T15:41:06.262Z,52.73
2022-09-28T15:43:34.498Z,52.79
2022-09-28T15:46:27.487Z,53.11
2022-09-28T15:48:59.770Z,54.03
2022-09-28T15:51:28.548Z,52.95
2022-09-28T15:54:12.284Z,52.37
2022-09-28T15:57:02.860Z,53.91
2022-09-28T15:59:39.570Z,54.20
2022-09-28T16:02:13.932Z,54.61
2022-09-28T16:05:00.778Z,53.63
2022-09-28T16:07:38.816Z,53.47
2022-09-28T16:10:12.878Z,54.54
2022-09-28T16:12:40.433Z,53.64
2022-09-28T16:15:32.596Z,53.58
2022-09-28T16:18:19.857Z,53.81
2022-09-28T16:20:50.370Z,54.13
2022-09-28T16:23:31.209Z,54.99
2022-09-28T16:26:02.176Z,54.61
2022-09-28T16:28:34.621Z,55.14
2022-09-28T16:31:14.423Z,55.82
2022-09-28T16:34:11.584Z,56.07
2022-09-28T16:36:43.763Z,56.39
2022-09-28T16:39:19.180Z,55.95
2022-09-28T16:41:54.133Z,58.17
2022-09-28T16:44:24.983Z,57.52
2022-09-28T16:46:55.608Z,58.71
2022-09-28T16:49:24.144Z,58.01
2022-09-28T16:51:51.948Z,57.48
2022-09-28T16:54:42.690Z,57.00
2022-09-28T16:57:12.532Z,58.01
2022-09-28T16:59:40.562Z,58.21
2022-09-28T17:02:45.281Z,58.19
2022-09-28T17:05:08.705Z,58.37
2022-09-28T17:07:36.821Z,59.95
2022-09-28T17:10:15.020Z,57.82
2022-09-28T17:12:43.141Z,58.49
2022-09-28T17:15:11.179Z,57.69
2022-09-28T17:17:41.036Z,58.26
2022-09-28T17:20:21.138Z,58.55
2022-09-28T17:22:50.523Z,59.44
2022-09-28T17:25:19.118Z,59.36
2022-09-28T17:27:48.211Z,60.28
2022-09-28T17:30:16.355Z,61.11
2022-09-28T17:32:47.488Z,63.01
2022-09-28T17:35:25.401Z,64.45
2022-09-28T17:37:53.894Z,64.99
2022-09-28T17:40:25.955Z,65.97
2022-09-28T17:42:56.518Z,66.56
2022-09-28T17:45:28.759Z,66.47
2022-09-28T17:47:57.556Z,69.92
2022-09-28T17:50:28.140Z,68.94
2022-09-28T17:52:58.027Z,70.28
2022-09-28T17:55:33.829Z,71.77
2022-09-28T17:58:11.350Z,73.58
2022-09-28T18:00:39.127Z,74.93
2022-09-28T18:03:13.731Z,76.55
2022-09-28T18:05:42.955Z,75.69
2022-09-28T18:08:17.269Z,77.12
2022-09-28T18:10:46.990Z,78.18
2022-09-28T18:13:15.333Z,78.53
2022-09-28T18:15:43.479Z,78.29
2022-09-28T18:18:13.052Z,79.30
2022-09-28T18:20:42.269Z,77.09
2022-09-28T18:23:10.399Z,79.70
2022-09-28T18:25:43.249Z,80.54
2022-09-28T18:28:12.449Z,81.22
2022-09-28T18:30:42.701Z,81.10
2022-09-28T18:33:12.287Z,81.21
2022-09-28T18:35:40.981Z,82.17
2022-09-28T18:38:09.612Z,81.27
2022-09-28T18:40:37.577Z,81.82
2022-09-28T18:43:06.149Z,79.62
2022-09-28T18:45:34.919Z,78.61
2022-09-28T18:48:03.173Z,79.45
2022-09-28T18:50:31.372Z,79.31
2022-09-28T18:53:11.842Z,79.00
2022-09-28T18:55:44.667Z,79.68
2022-09-28T18:58:12.787Z,80.09
2022-09-28T19:00:42.132Z,79.46
2022-09-28T19:03:11.328Z,79.37
2022-09-28T19:05:42.829Z,79.94
2022-09-28T19:08:11.868Z,78.87
2022-09-28T19:10:40.141Z,78.61
2022-09-28T19:13:08.135Z,78.58
2022-09-28T19:15:36.402Z,77.53
2022-09-28T19:18:04.455Z,79.16
2022-09-28T19:20:33.588Z,79.28
2022-09-28T19:23:02.240Z,78.95
2022-09-28T19:25:30.126Z,79.18
2022-09-28T19:27:57.901Z,82.35
2022-09-28T19:30:25.902Z,80.16
2022-09-28T19:32:53.609Z,79.16
2022-09-28T19:35:21.495Z,79.64
2022-09-28T19:37:50.041Z,78.59
2022-09-28T19:40:17.734Z,76.83
2022-09-28T19:42:45.772Z,78.67
2022-09-28T19:45:13.820Z,80.51
2022-09-28T19:47:41.663Z,79.64
2022-09-28T19:50:10.493Z,80.70
2022-09-28T19:52:38.400Z,80.52
2022-09-28T19:55:06.522Z,79.43
2022-09-28T19:57:34.962Z,80.25
2022-09-28T20:00:04.120Z,80.08
2022-09-28T20:02:34.088Z,81.14
2022-09-28T20:05:02.296Z,79.77
2022-09-28T20:07:33.061Z,80.19
2022-09-28T20:10:00.859Z,80.46
2022-09-28T20:12:28.970Z,82.17
2022-09-28T20:14:56.600Z,82.38
2022-09-28T20:17:24.372Z,81.90
2022-09-28T20:19:52.757Z,83.86
2022-09-28T20:22:21.395Z,81.59
2022-09-28T20:24:49.163Z,82.04
2022-09-28T20:27:17.119Z,80.75
2022-09-28T20:29:44.829Z,81.34
2022-09-28T20:32:12.507Z,83.14
2022-09-28T20:34:40.460Z,85.49
2022-09-28T20:37:08.439Z,83.53
2022-09-28T20:39:36.177Z,80.66
2022-09-28T20:42:04.146Z,81.77
2022-09-28T20:44:31.949Z,82.45
2022-09-28T20:47:00.006Z,81.88
2022-09-28T20:49:28.262Z,82.25
2022-09-28T20:51:56.125Z,82.84
2022-09-28T20:54:23.863Z,82.85
2022-09-28T20:56:52.165Z,82.64
2022-09-28T20:59:23.010Z,81.74
2022-09-28T21:01:51.276Z,79.94
2022-09-28T21:04:19.784Z,82.08
2022-09-28T21:06:47.630Z,85.00
2022-09-28T21:09:15.223Z,84.70
2022-09-28T21:11:43.181Z,83.85
2022-09-28T21:14:10.953Z,83.07
2022-09-28T21:16:39.442Z,82.21
2022-09-28T21:19:07.613Z,84.30
2022-09-28T21:21:36.341Z,82.05
2022-09-28T21:24:04.186Z,80.27
2022-09-28T21:26:32.826Z,81.65
2022-09-28T21:29:01.314Z,81.87
2022-09-28T21:31:32.753Z,83.43
2022-09-28T21:34:01.017Z,81.47
2022-09-28T21:36:28.842Z,83.64
2022-09-28T21:38:57.071Z,84.45
2022-09-28T21:41:25.941Z,82.50
2022-09-28T21:43:53.792Z,84.08
2022-09-28T21:46:21.860Z,84.17
2022-09-28T21:48:53.750Z,81.98
2022-09-28T21:51:21.871Z,83.16
2022-09-28T21:53:49.568Z,85.20
2022-09-28T21:56:17.883Z,85.70
2022-09-28T21:58:45.583Z,84.40
2022-09-28T22:01:16.754Z,83.60
2022-09-28T22:03:47.696Z,84.55
2022-09-28T22:06:17.200Z,82.91
2022-09-28T22:08:45.972Z,83.01
2022-09-28T22:11:22.612Z,84.27
2022-09-28T22:13:52.930Z,84.10
2022-09-28T22:16:23.106Z,84.62
2022-09-28T22:18:51.201Z,84.37
2022-09-28T22:21:20.942Z,83.68
2022-09-28T22:23:48.786Z,83.44
2022-09-28T22:26:25.487Z,84.27
2022-09-28T22:28:54.107Z,84.65
2022-09-28T22:31:24.823Z,86.83
2022-09-28T22:33:52.744Z,85.02
2022-09-28T22:36:21.138Z,85.69
2022-09-28T22:38:49.216Z,84.82
2022-09-28T22:41:20.606Z,84.59
2022-09-28T22:43:49.822Z,81.91
2022-09-28T22:46:20.279Z,80.37
2022-09-28T22:48:53.806Z,81.67
2022-09-28T22:51:22.797Z,80.05
2022-09-28T22:53:50.737Z,79.25
2022-09-28T22:56:19.354Z,82.77
2022-09-28T22:58:47.947Z,83.31
2022-09-28T23:01:18.833Z,84.92
2022-09-28T23:03:47.819Z,85.50
2022-09-28T23:06:17.800Z,86.14
2022-09-28T23:08:46.137Z,88.26
2022-09-28T23:11:14.708Z,87.43
2022-09-28T23:13:43.079Z,85.80
2022-09-28T23:16:12.426Z,88.65
2022-09-28T23:18:43.978Z,88.69
2022-09-28T23:21:18.264Z,87.10
2022-09-28T23:23:46.710Z,89.22
2022-09-28T23:26:17.058Z,89.75
2022-09-28T23:28:45.126Z,88.96
2022-09-28T23:31:18.514Z,88.70
2022-09-28T23:33:46.800Z,88.37
2022-09-28T23:36:15.344Z,87.19
2022-09-28T23:38:43.531Z,87.51
2022-09-28T23:41:11.707Z,85.17
2022-09-28T23:43:39.437Z,85.59
2022-09-28T23:46:07.430Z,84.65
2022-09-28T23:48:35.487Z,85.33
2022-09-28T23:51:03.416Z,87.74
2022-09-28T23:53:32.459Z,87.66
2022-09-28T23:56:00.902Z,86.62
2022-09-28T23:58:28.738Z,87.30
